Time;durP1;ratioP1;P1;durP2;ratioP2;P2;SDS_P1;SDS_P2;PMS_P1;PMS_P2;Temp;Humidity;BMP_temperature;BMP_pressure;BME280_temperature;BME280_humidity;BME280_pressure;Samples;Min_cycle;Max_cycle;Signal;HPM_P1;HPM_P2
2022/09/29 00:00:30;;;;;;;6.50;3.28;;;;;;;6.96;100.00;100124.66;7378318;19;20014;-70
2022/09/29 00:03:00;;;;;;;7.13;3.70;;;;;;;6.88;100.00;100125.41;7375830;19;20030;-70
2022/09/29 00:05:30;;;;;;;9.75;3.72;;;;;;;6.86;100.00;100121.91;7377534;19;20018;-70
2022/09/29 00:08:00;;;;;;;8.13;3.50;;;;;;;6.82;100.00;100125.31;7375866;19;20014;-70
2022/09/29 00:10:30;;;;;;;7.32;3.20;;;;;;;6.78;100.00;100125.22;7379616;19;20022;-71
2022/09/29 00:13:03;;;;;;;6.80;3.20;;;;;;;6.73;100.00;100132.09;7378489;19;20010;-70
2022/09/29 00:15:33;;;;;;;5.30;2.85;;;;;;;6.70;100.00;100121.63;7380812;19;20007;-70
2022/09/29 00:18:03;;;;;;;7.70;3.10;;;;;;;6.69;100.00;100131.16;7377990;19;20029;-71
2022/09/29 00:20:58;;;;;;;6.45;3.30;;;;;;;6.66;100.00;100131.09;7379230;19;20013;-70
2022/09/29 00:23:30;;;;;;;8.90;3.92;;;;;;;6.63;100.00;100131.06;7377527;19;20003;-70
2022/09/29 00:26:06;;;;;;;7.97;3.97;;;;;;;6.61;100.00;100131.88;7369102;19;20007;-70
2022/09/29 00:28:40;;;;;;;7.88;3.80;;;;;;;6.61;100.00;100122.31;7376343;19;20015;-72
2022/09/29 00:31:12;;;;;;;7.75;3.65;;;;;;;6.61;100.00;100111.03;7374156;19;20388;-70
2022/09/29 00:33:42;;;;;;;7.35;3.67;;;;;;;6.60;100.00;100110.16;7379556;19;20006;-70
2022/09/29 00:36:14;;;;;;;7.13;4.20;;;;;;;6.57;100.00;100120.53;7375140;19;20409;-70
2022/09/29 00:38:45;;;;;;;8.80;4.00;;;;;;;6.52;100.00;100119.56;7376933;19;20007;-70
2022/09/29 00:41:18;;;;;;;8.20;4.57;;;;;;;6.52;100.00;100116.94;7374314;19;20035;-70
2022/09/29 00:43:57;;;;;;;11.13;4.47;;;;;;;6.49;100.00;100114.28;7375502;19;20121;-70
2022/09/29 00:46:34;;;;;;;9.50;3.97;;;;;;;6.47;100.00;100118.59;7373929;19;20034;-70
2022/09/29 00:49:08;;;;;;;9.73;4.25;;;;;;;6.46;100.00;100114.25;7375915;19;20021;-70
2022/09/29 00:51:41;;;;;;;10.90;4.55;;;;;;;6.50;100.00;100118.66;7378497;19;20007;-71
2022/09/29 00:54:12;;;;;;;10.90;5.20;;;;;;;6.53;100.00;100116.09;7370223;19;20011;-70
2022/09/29 00:56:44;;;;;;;12.02;6.50;;;;;;;6.61;100.00;100121.44;7372743;19;20077;-70
2022/09/29 00:59:23;;;;;;;12.32;6.47;;;;;;;6.65;100.00;100118.94;7374994;19;20017;-70
2022/09/29 01:01:53;;;;;;;13.00;6.75;;;;;;;6.63;100.00;100114.53;7377004;19;20022;-70
2022/09/29 01:04:24;;;;;;;13.18;6.13;;;;;;;6.63;100.00;100123.22;7375225;19;20018;-70
2022/09/29 01:06:57;;;;;;;15.02;7.32;;;;;;;6.56;100.00;100114.44;7374801;19;20007;-70
2022/09/29 01:09:30;;;;;;;13.18;7.25;;;;;;;6.56;100.00;100119.66;7375675;19;20486;-72
2022/09/29 01:12:01;;;;;;;11.87;6.63;;;;;;;6.58;100.00;100114.47;7372398;19;20496;-70
2022/09/29 01:14:35;;;;;;;13.93;6.95;;;;;;;6.57;100.00;100115.31;7378075;19;20748;-70
2022/09/29 01:17:06;;;;;;;13.10;6.68;;;;;;;6.54;100.00;100120.47;7376641;19;20014;-71
2022/09/29 01:19:48;;;;;;;16.60;7.68;;;;;;;6.49;100.00;100109.09;7377911;19;20472;-70
2022/09/29 01:22:34;;;;;;;12.00;6.68;;;;;;;6.42;100.00;100113.31;7375567;19;20039;-70
2022/09/29 01:25:22;;;;;;;12.60;6.32;;;;;;;6.35;100.00;100115.75;7376673;19;20471;-72
2022/09/29 01:28:21;;;;;;;13.45;6.55;;;;;;;6.29;100.00;100113.03;7374922;19;20624;-70
2022/09/29 01:31:11;;;;;;;13.15;6.28;;;;;;;6.22;100.00;100115.56;7373069;19;20038;-71
2022/09/29 01:33:49;;;;;;;14.25;6.90;;;;;;;6.19;100.00;100123.31;7372111;19;20082;-70
2022/09/29 01:36:31;;;;;;;13.00;6.40;;;;;;;6.15;100.00;100113.69;7375079;19;20009;-71
2022/09/29 01:39:11;;;;;;;11.95;6.03;;;;;;;6.14;100.00;100108.47;7374153;19;20007;-70
2022/09/29 01:41:48;;;;;;;11.27;5.93;;;;;;;6.14;100.00;100117.16;7371628;19;20484;-70
2022/09/29 01:44:24;;;;;;;16.58;7.40;;;;;;;6.15;100.00;100110.22;7375330;19;20009;-71
2022/09/29 01:47:01;;;;;;;16.67;7.93;;;;;;;6.16;100.00;100107.63;7374469;19;20018;-71
2022/09/29 01:49:35;;;;;;;14.68;7.25;;;;;;;6.19;100.00;100107.69;7373473;19;20014;-71
2022/09/29 01:52:09;;;;;;;13.32;7.82;;;;;;;6.21;100.00;100111.22;7371992;19;20007;-71
2022/09/29 01:54:49;;;;;;;17.33;8.90;;;;;;;6.35;100.00;100120.97;7373909;19;20014;-71
2022/09/29 01:57:23;;;;;;;19.55;9.82;;;;;;;6.43;100.00;100111.56;7374192;19;20061;-71
2022/09/29 02:00:00;;;;;;;21.83;9.90;;;;;;;6.46;100.00;100116.84;7374788;19;20390;-70
2022/09/29 02:02:39;;;;;;;18.80;9.60;;;;;;;6.49;100.00;100111.69;7375537;19;20010;-70
2022/09/29 02:05:16;;;;;;;17.65;9.32;;;;;;;6.46;100.00;100112.50;7376621;19;20015;-68
2022/09/29 02:07:49;;;;;;;16.17;8.52;;;;;;;6.43;100.00;100112.47;7381619;19;20002;-68
2022/09/29 02:10:25;;;;;;;15.15;8.07;;;;;;;6.39;100.00;100105.44;7382659;19;20010;-68
2022/09/29 02:12:56;;;;;;;16.77;8.25;;;;;;;6.34;100.00;100116.63;7378481;19;20026;-68
2022/09/29 02:15:33;;;;;;;15.00;8.13;;;;;;;6.31;100.00;100116.56;7381815;19;20031;-68
2022/09/29 02:18:15;;;;;;;21.88;10.35;;;;;;;6.32;100.00;100113.97;7379496;19;20345;-70
2022/09/29 02:20:45;;;;;;;18.00;9.10;;;;;;;6.28;100.00;100122.59;7381070;19;20015;-70
2022/09/29 02:23:14;;;;;;;18.08;8.30;;;;;;;6.23;100.00;100124.25;7380107;19;20008;-70
2022/09/29 02:25:45;;;;;;;18.88;8.63;;;;;;;6.13;100.00;100110.19;7379117;19;20044;-70
2022/09/29 02:28:16;;;;;;;17.08;9.20;;;;;;;6.08;100.00;100114.41;7379898;19;20015;-70
2022/09/29 02:30:46;;;;;;;15.10;8.35;;;;;;;6.03;100.00;100116.06;7380599;19;20816;-70
2022/09/29 02:33:24;;;;;;;17.17;8.45;;;;;;;5.99;100.00;100124.66;7379785;19;20361;-71
2022/09/29 02:36:04;;;;;;;14.50;7.88;;;;;;;5.93;100.00;100116.72;7382553;19;21401;-68
2022/09/29 02:38:45;;;;;;;14.57;7.72;;;;;;;5.88;100.00;100116.59;7379499;19;20011;-69
2022/09/29 02:41:30;;;;;;;17.40;8.57;;;;;;;5.82;100.00;100118.19;7378900;19;20011;-68
2022/09/29 02:44:20;;;;;;;16.25;8.48;;;;;;;5.77;100.00;100118.09;7380430;19;20086;-70
2022/09/29 02:47:13;;;;;;;15.45;7.65;;;;;;;5.69;100.00;100114.44;7378615;19;20101;-68
2022/09/29 02:50:01;;;;;;;15.60;8.23;;;;;;;5.66;100.00;100117.00;7381471;19;20578;-69
2022/09/29 02:52:45;;;;;;;15.10;7.57;;;;;;;5.64;100.00;100117.78;7380049;19;20749;-71
2022/09/29 02:55:21;;;;;;;15.05;7.55;;;;;;;5.63;100.00;100114.31;7380080;19;20015;-69
2022/09/29 02:57:57;;;;;;;16.00;7.93;;;;;;;5.61;100.00;100117.72;7380592;19;20042;-69
2022/09/29 03:00:28;;;;;;;15.05;8.00;;;;;;;5.56;100.00;100120.22;7380420;19;20086;-69
2022/09/29 03:03:01;;;;;;;15.70;7.82;;;;;;;5.50;100.00;100120.97;7383312;19;20026;-68
2022/09/29 03:05:34;;;;;;;16.27;8.00;;;;;;;5.47;100.00;100123.50;7383873;19;20025;-68
2022/09/29 03:08:05;;;;;;;16.27;8.57;;;;;;;5.42;100.00;100124.25;7380888;19;20487;-69
2022/09/29 03:10:34;;;;;;;16.90;7.95;;;;;;;5.37;100.00;100126.75;7383139;19;20357;-69
2022/09/29 03:13:04;;;;;;;19.38;9.60;;;;;;;5.35;100.00;100123.22;7376813;19;20015;-68
2022/09/29 03:15:34;;;;;;;14.90;8.30;;;;;;;5.31;100.00;100126.59;7375677;19;20015;-68
2022/09/29 03:18:04;;;;;;;18.20;9.15;;;;;;;5.31;100.00;100125.72;7376231;19;20014;-69
2022/09/29 03:20:41;;;;;;;14.60;8.43;;;;;;;5.30;100.00;100123.97;7378017;19;20024;-70
2022/09/29 03:23:12;;;;;;;17.83;9.75;;;;;;;5.31;100.00;100126.59;7378320;19;20015;-70
2022/09/29 03:25:42;;;;;;;17.63;9.25;;;;;;;5.38;100.00;100132.81;7378699;19;20011;-69
2022/09/29 03:28:11;;;;;;;17.73;8.88;;;;;;;5.41;100.00;100131.19;7379902;19;20027;-68
2022/09/29 03:30:41;;;;;;;19.67;10.55;;;;;;;5.39;100.00;100130.25;7375949;19;20021;-68
2022/09/29 03:33:11;;;;;;;17.45;8.43;;;;;;;5.33;100.00;100135.31;7377250;19;20014;-68
2022/09/29 03:35:43;;;;;;;22.02;11.07;;;;;;;5.31;100.00;100137.00;7374751;19;20018;-68
2022/09/29 03:38:13;;;;;;;20.38;10.00;;;;;;;5.28;100.00;100136.06;7376757;19;20086;-68
2022/09/29 03:40:43;;;;;;;16.60;7.35;;;;;;;5.24;100.00;100135.09;7374050;19;20014;-69
2022/09/29 03:43:13;;;;;;;21.75;9.60;;;;;;;5.18;100.00;100129.78;7379446;19;20019;-70
2022/09/29 03:45:49;;;;;;;16.38;8.48;;;;;;;5.14;100.00;100130.56;7381156;19;20321;-68
2022/09/29 03:48:20;;;;;;;19.65;10.40;;;;;;;5.16;100.00;100141.88;7376585;19;20011;-68
2022/09/29 03:50:55;;;;;;;17.95;9.35;;;;;;;5.15;100.00;100145.31;7379452;19;20402;-68
2022/09/29 03:53:25;;;;;;;20.92;10.65;;;;;;;5.17;100.00;100141.03;7372470;19;20019;-68
2022/09/29 03:55:55;;;;;;;19.73;8.90;;;;;;;5.14;100.00;100143.56;7376035;19;20019;-68
2022/09/29 03:58:27;;;;;;;19.05;9.85;;;;;;;5.08;100.00;100148.63;7378182;19;20681;-68
2022/09/29 04:00:56;;;;;;;20.80;11.27;;;;;;;5.04;100.00;100145.06;7381655;19;20026;-68
2022/09/29 04:03:26;;;;;;;21.45;11.70;;;;;;;4.99;100.00;100144.06;7380924;19;20042;-68
2022/09/29 04:06:00;;;;;;;20.10;10.45;;;;;;;4.99;100.00;100145.78;7376776;19;20021;-68
2022/09/29 04:08:30;;;;;;;18.42;10.10;;;;;;;4.98;100.00;100147.50;7379707;19;20024;-68
2022/09/29 04:11:00;;;;;;;18.42;9.25;;;;;;;5.00;100.00;100147.53;7379391;19;20011;-69
2022/09/29 04:13:30;;;;;;;19.25;9.50;;;;;;;4.96;100.00;100146.59;7377987;19;20025;-69
2022/09/29 04:16:01;;;;;;;18.17;9.30;;;;;;;4.92;100.00;100153.44;7378434;19;20297;-69
2022/09/29 04:18:31;;;;;;;20.15;10.13;;;;;;;4.92;100.00;100158.63;7377800;19;20576;-69
2022/09/29 04:21:07;;;;;;;32.53;14.50;;;;;;;4.87;100.00;100157.63;7376249;19;20342;-68
2022/09/29 04:23:37;;;;;;;23.33;11.65;;;;;;;4.86;100.00;100162.78;7373655;19;20079;-68
2022/09/29 04:26:07;;;;;;;18.50;10.35;;;;;;;4.84;100.00;100160.16;7374658;19;20010;-72
2022/09/29 04:28:40;;;;;;;21.15;11.45;;;;;;;4.83;100.00;100163.59;7375258;19;20676;-72
2022/09/29 04:31:10;;;;;;;21.08;10.63;;;;;;;4.82;100.00;100159.25;7377859;19;20014;-72
2022/09/29 04:33:40;;;;;;;24.40;11.88;;;;;;;4.80;100.00;100158.31;7374354;19;20058;-71
2022/09/29 04:36:13;;;;;;;24.52;12.60;;;;;;;4.77;100.00;100162.56;7375055;19;20010;-70
2022/09/29 04:38:42;;;;;;;24.33;12.13;;;;;;;4.75;100.00;100161.63;7378166;19;20104;-71
2022/09/29 04:41:12;;;;;;;24.10;12.45;;;;;;;4.69;100.00;100164.97;7375997;19;20006;-71
2022/09/29 04:43:42;;;;;;;16.92;9.68;;;;;;;4.65;100.00;100163.13;7374178;19;20493;-69
2022/09/29 04:46:24;;;;;;;25.55;12.20;;;;;;;4.64;100.00;100171.75;7375688;19;20070;-68
2022/09/29 04:48:54;;;;;;;25.55;11.75;;;;;;;4.61;100.00;100171.66;7374652;19;20050;-68
2022/09/29 04:51:29;;;;;;;21.42;11.05;;;;;;;4.60;100.00;100186.38;7374547;19;20018;-68
2022/09/29 04:54:00;;;;;;;21.33;10.95;;;;;;;4.61;100.00;100179.47;7368494;19;20038;-68
2022/09/29 04:56:32;;;;;;;28.75;13.88;;;;;;;4.65;100.00;100189.09;7376266;19;20030;-68
2022/09/29 04:59:07;;;;;;;23.23;12.48;;;;;;;4.65;100.00;100194.28;7374967;19;20014;-68
2022/09/29 05:01:41;;;;;;;27.38;14.68;;;;;;;4.62;100.00;100201.13;7373015;19;20010;-69
2022/09/29 05:04:13;;;;;;;23.27;12.02;;;;;;;4.62;100.00;100194.22;7377535;19;20007;-69
2022/09/29 05:06:47;;;;;;;22.55;11.60;;;;;;;4.61;100.00;100192.44;7375778;19;20007;-69
2022/09/29 05:09:18;;;;;;;24.98;11.85;;;;;;;4.57;100.00;100211.38;7375469;19;20007;-69
2022/09/29 05:11:53;;;;;;;23.42;12.77;;;;;;;4.51;100.00;100200.81;7374233;19;20397;-69
2022/09/29 05:14:22;;;;;;;20.58;11.73;;;;;;;4.48;100.00;100205.94;7373823;19;20557;-72
2022/09/29 05:16:52;;;;;;;25.00;12.27;;;;;;;4.48;100.00;100206.81;7375732;19;20032;-71
2022/09/29 05:19:22;;;;;;;23.70;12.80;;;;;;;4.50;100.00;100206.84;7374466;19;20022;-71
2022/09/29 05:21:54;;;;;;;19.65;11.70;;;;;;;4.50;100.00;100210.34;7375986;19;20026;-71
2022/09/29 05:24:24;;;;;;;21.50;11.93;;;;;;;4.53;100.00;100214.72;7374143;19;20783;-71
2022/09/29 05:26:53;;;;;;;23.70;12.60;;;;;;;4.50;100.00;100217.25;7373298;19;20094;-71
2022/09/29 05:29:27;;;;;;;22.08;12.48;;;;;;;4.44;100.00;100220.56;7373604;19;20018;-71
2022/09/29 05:31:57;;;;;;;22.20;12.10;;;;;;;4.43;100.00;100223.09;7371646;19;20019;-71
2022/09/29 05:34:26;;;;;;;21.17;11.07;;;;;;;4.40;100.00;100225.63;7372641;19;20007;-71
2022/09/29 05:37:01;;;;;;;20.33;10.75;;;;;;;4.36;100.00;100221.16;7372577;19;20550;-71
2022/09/29 05:39:33;;;;;;;18.63;10.55;;;;;;;4.36;100.00;100223.75;7373029;19;20086;-70
2022/09/29 05:42:05;;;;;;;18.92;10.63;;;;;;;4.35;100.00;100224.59;7382807;19;20002;-70
2022/09/29 05:44:35;;;;;;;21.25;12.35;;;;;;;4.37;100.00;100228.13;7378928;19;20026;-70
2022/09/29 05:47:05;;;;;;;27.88;14.15;;;;;;;4.35;100.00;100220.28;7380343;19;20574;-71
2022/09/29 05:49:35;;;;;;;19.45;11.52;;;;;;;4.34;100.00;100228.03;7383140;19;21659;-71
2022/09/29 05:52:07;;;;;;;24.13;13.57;;;;;;;4.35;100.00;100225.47;7382013;19;20487;-71
2022/09/29 05:54:37;;;;;;;21.60;11.32;;;;;;;4.35;100.00;100232.41;7379906;19;20019;-69
2022/09/29 05:57:08;;;;;;;27.10;13.10;;;;;;;4.38;100.00;100228.16;7380607;19;20014;-69
2022/09/29 05:59:37;;;;;;;25.08;13.50;;;;;;;4.38;100.00;100237.66;7377741;19;20014;-69
2022/09/29 06:02:13;;;;;;;26.55;12.88;;;;;;;4.37;100.00;100229.00;7384577;19;20014;-69
2022/09/29 06:04:43;;;;;;;24.58;13.02;;;;;;;4.42;100.00;100235.22;7383510;19;20014;-69
2022/09/29 06:07:15;;;;;;;23.50;14.10;;;;;;;4.46;100.00;100230.97;7385052;19;20361;-68
2022/09/29 06:09:46;;;;;;;23.33;13.13;;;;;;;4.46;100.00;100229.25;7384640;19;20022;-68
2022/09/29 06:12:16;;;;;;;19.33;12.60;;;;;;;4.48;100.00;100231.91;7382789;19;20462;-69
2022/09/29 06:14:51;;;;;;;21.35;11.77;;;;;;;4.50;100.00;100236.31;7382110;19;20042;-69
2022/09/29 06:17:21;;;;;;;23.85;12.10;;;;;;;4.52;100.00;100238.94;7383753;19;20006;-69
2022/09/29 06:19:52;;;;;;;25.60;14.40;;;;;;;4.54;100.00;100243.34;7372115;19;20045;-69
2022/09/29 06:22:26;;;;;;;25.67;13.88;;;;;;;4.55;100.00;100245.09;7383969;19;20070;-68
2022/09/29 06:24:56;;;;;;;22.17;13.05;;;;;;;4.59;100.00;100248.66;7383582;19;20010;-71
2022/09/29 06:27:26;;;;;;;21.75;13.13;;;;;;;4.64;100.00;100241.00;7380966;19;20332;-72
2022/09/29 06:29:55;;;;;;;25.35;13.45;;;;;;;4.68;100.00;100241.13;7382078;19;20026;-72
2022/09/29 06:32:26;;;;;;;24.58;14.32;;;;;;;4.74;100.00;100246.47;7381886;19;20443;-71
2022/09/29 06:37:42;;;;;;;23.35;12.65;;;;;;;4.80;100.00;100257.03;7379533;19;20085;-70
2022/09/29 06:40:13;;;;;;;27.25;15.50;;;;;;;4.91;100.00;100245.22;7380450;19;20700;-72
2022/09/29 06:42:42;;;;;;;29.35;16.58;;;;;;;5.00;100.00;100251.50;7375863;19;20089;-71
2022/09/29 06:45:13;;;;;;;30.80;17.45;;;;;;;5.14;100.00;100258.81;7379397;19;20129;-71
2022/09/29 06:47:45;;;;;;;37.03;19.52;;;;;;;5.32;100.00;100262.69;7376647;19;20025;-69
2022/09/29 06:50:15;;;;;;;35.97;18.75;;;;;;;5.37;100.00;100256.75;7374700;19;20033;-70
2022/09/29 06:52:51;;;;;;;34.38;18.15;;;;;;;5.51;100.00;100259.69;7373920;19;20025;-70
2022/09/29 06:55:33;;;;;;;33.83;18.92;;;;;;;5.64;100.00;100260.88;7377523;19;20010;-69
2022/09/29 06:58:03;;;;;;;35.33;19.05;;;;;;;5.79;100.00;100272.53;7380915;19;20021;-70
2022/09/29 07:00:34;;;;;;;40.75;22.70;;;;;;;5.96;100.00;100264.25;7378024;19;20015;-70
2022/09/29 07:03:04;;;;;;;42.80;21.52;;;;;;;6.08;100.00;100269.75;7374053;19;20070;-70
2022/09/29 07:05:34;;;;;;;35.88;21.45;;;;;;;6.23;100.00;100277.88;7373998;19;20018;-70
2022/09/29 07:08:06;;;;;;;34.13;21.27;;;;;;;6.34;100.00;100278.09;7380108;19;20003;-69
2022/09/29 07:10:36;;;;;;;40.67;20.77;;;;;;;6.45;100.00;100266.16;7375287;19;20033;-69
2022/09/29 07:13:07;;;;;;;36.40;20.25;;;;;;;6.54;100.00;100271.56;7373579;19;20014;-70
2022/09/29 07:15:37;;;;;;;38.05;20.65;;;;;;;6.76;100.00;100267.66;7375368;19;20014;-71
2022/09/29 07:18:07;;;;;;;42.35;22.55;;;;;;;6.85;100.00;100271.31;7374885;19;20021;-70
2022/09/29 07:20:38;;;;;;;38.95;20.50;;;;;;;6.91;100.00;100274.91;7377252;19;20014;-70
2022/09/29 07:23:10;;;;;;;36.55;19.55;;;;;;;6.95;100.00;100279.31;7376173;19;20010;-71
2022/09/29 07:25:40;;;;;;;38.92;20.90;;;;;;;7.04;100.00;100289.91;7375002;19;20018;-70
2022/09/29 07:28:21;;;;;;;39.45;21.63;;;;;;;7.23;100.00;100289.41;7374522;19;20010;-70
2022/09/29 07:31:01;;;;;;;39.90;22.08;;;;;;;7.41;100.00;100281.88;7381657;19;20014;-70
2022/09/29 07:33:42;;;;;;;40.20;21.65;;;;;;;7.58;100.00;100291.72;7376285;19;20014;-70
2022/09/29 07:36:12;;;;;;;39.42;21.15;;;;;;;7.75;100.00;100293.75;7373652;19;19998;-68
2022/09/29 07:38:47;;;;;;;41.38;23.08;;;;;;;7.96;100.00;100295.81;7376239;19;20006;-71
2022/09/29 07:41:18;;;;;;;42.70;22.48;;;;;;;8.19;100.00;100293.53;7372189;19;20025;-70
2022/09/29 07:43:48;;;;;;;43.13;23.45;;;;;;;8.46;100.00;100290.41;7372306;19;21272;-71
2022/09/29 07:46:18;;;;;;;45.83;24.73;;;;;;;8.71;100.00;100297.72;7373849;19;20322;-71
2022/09/29 07:48:48;;;;;;;42.47;23.92;;;;;;;8.91;100.00;100297.06;7367936;19;20013;-72
2022/09/29 07:51:20;;;;;;;46.38;24.83;;;;;;;9.15;100.00;100294.72;7375855;19;20029;-70
2022/09/29 07:53:53;;;;;;;39.25;24.90;;;;;;;9.36;100.00;100294.06;7376629;19;20015;-72
2022/09/29 07:56:24;;;;;;;47.30;26.27;;;;;;;9.53;100.00;100308.16;7380279;19;20022;-71
2022/09/29 07:58:54;;;;;;;36.15;22.40;;;;;;;9.75;100.00;100303.97;7379031;19;20010;-71
2022/09/29 08:01:23;;;;;;;45.78;25.25;;;;;;;9.89;100.00;100309.31;7377605;19;20010;-71
2022/09/29 08:03:55;;;;;;;45.15;23.33;;;;;;;10.15;100.00;100311.25;7371333;19;20019;-70
2022/09/29 08:06:26;;;;;;;33.80;21.58;;;;;;;10.37;100.00;100311.41;7378670;19;20093;-70
2022/09/29 08:09:01;;;;;;;34.97;20.88;;;;;;;10.49;100.00;100314.94;7381207;19;20018;-71
2022/09/29 08:11:34;;;;;;;36.28;20.73;;;;;;;10.54;100.00;100320.22;7381425;19;20014;-71
2022/09/29 08:14:04;;;;;;;38.28;19.85;;;;;;;10.64;100.00;100316.78;7377416;19;20010;-71
2022/09/29 08:16:35;;;;;;;31.17;18.02;;;;;;;10.72;100.00;100322.94;7374206;19;20070;-71
2022/09/29 08:19:07;;;;;;;27.30;18.45;;;;;;;10.80;100.00;100318.59;7376483;19;20018;-71
2022/09/29 08:21:37;;;;;;;28.65;16.70;;;;;;;11.06;100.00;100331.81;7374415;19;20018;-71
2022/09/29 08:24:11;;;;;;;27.50;16.38;;;;;;;11.23;100.00;100329.22;7375867;19;20116;-71
2022/09/29 08:26:41;;;;;;;26.55;14.68;;;;;;;11.29;100.00;100339.75;7373344;19;20014;-71
2022/09/29 08:29:13;;;;;;;19.92;13.07;;;;;;;11.41;100.00;100341.53;7373726;19;20518;-71
2022/09/29 08:31:46;;;;;;;24.27;13.35;;;;;;;11.66;100.00;100345.03;7381809;19;20070;-69
2022/09/29 08:34:16;;;;;;;21.30;12.45;;;;;;;11.84;100.00;100345.06;7371279;19;20015;-69
2022/09/29 08:36:46;;;;;;;24.60;13.07;;;;;;;11.87;100.00;100347.69;7371040;19;20010;-69
2022/09/29 08:39:19;;;;;;;18.27;11.52;;;;;;;12.09;100.00;100359.09;7368614;19;20963;-69
2022/09/29 08:41:54;;;;;;;16.75;10.27;;;;;;;12.20;100.00;100357.34;7370561;19;20015;-69
2022/09/29 08:44:36;;;;;;;18.15;11.30;;;;;;;12.29;100.00;100369.59;7372875;19;20007;-69
2022/09/29 08:47:18;;;;;;;20.00;10.88;;;;;;;12.49;100.00;100370.41;7372625;19;20028;-69
2022/09/29 08:49:54;;;;;;;18.45;11.07;;;;;;;12.61;100.00;100378.25;7370415;19;20018;-69
2022/09/29 08:52:27;;;;;;;20.42;10.48;;;;;;;12.58;100.00;100382.66;7370388;19;20018;-69
2022/09/29 08:55:21;;;;;;;17.83;9.25;;;;;;;12.55;100.00;100378.28;7372803;19;20627;-69
2022/09/29 08:57:56;;;;;;;16.25;8.52;;;;;;;12.67;100.00;100390.53;7370811;19;20014;-69
2022/09/29 09:00:39;;;;;;;14.13;8.20;;;;;;;12.62;100.00;100384.41;7373253;19;20041;-69
2022/09/29 09:03:25;;;;;;;14.60;7.63;;;;;;;12.93;100.00;100379.94;7371142;19;20011;-69
2022/09/29 09:06:11;;;;;;;16.30;7.75;;;;;;;12.92;100.00;100384.31;7373174;19;20326;-68
2022/09/29 09:08:56;;;;;;;15.85;8.52;;;;;;;13.15;100.00;100386.00;7374892;19;20426;-68
2022/09/29 09:11:51;;;;;;;14.23;8.35;;;;;;;12.58;100.00;100391.44;7367259;19;20403;-68
2022/09/29 09:14:27;;;;;;;;;;;;;;;12.74;100.00;100394.91;7378128;19;20507;-68
2022/09/29 09:17:09;;;;;;;13.43;7.30;;;;;;;12.97;100.00;100384.31;7383188;19;20376;-68
2022/09/29 09:19:54;;;;;;;11.00;6.20;;;;;;;13.16;100.00;100383.38;7386576;19;20445;-69
2022/09/29 09:22:26;;;;;;;12.88;6.57;;;;;;;13.50;100.00;100393.75;7377661;19;20014;-71
2022/09/29 09:25:00;;;;;;;19.60;9.57;;;;;;;13.67;100.00;100387.47;7379809;19;20540;-71
2022/09/29 09:27:39;;;;;;;17.17;9.05;;;;;;;13.79;100.00;100388.25;7378722;19;20006;-72
2022/09/29 09:30:15;;;;;;;15.52;7.75;;;;;;;14.02;100.00;100387.22;7383978;19;20086;-72
2022/09/29 09:32:50;;;;;;;13.63;6.75;;;;;;;14.28;100.00;100396.66;7380571;19;20010;-73
2022/09/29 09:35:32;;;;;;;13.68;7.10;;;;;;;14.15;100.00;100395.88;7381807;19;20018;-69
2022/09/29 09:38:06;;;;;;;18.02;7.43;;;;;;;14.17;100.00;100394.13;7382577;19;20086;-70
2022/09/29 09:40:42;;;;;;;10.10;5.45;;;;;;;14.36;100.00;100394.81;7384671;19;20011;-69
2022/09/29 09:43:20;;;;;;;10.63;5.97;;;;;;;14.65;100.00;100392.78;7378467;19;20023;-71
2022/09/29 09:45:56;;;;;;;12.35;6.20;;;;;;;14.70;100.00;100390.97;7377581;19;20010;-71
2022/09/29 09:48:32;;;;;;;11.57;5.63;;;;;;;14.64;100.00;100392.78;7380557;19;20520;-69
2022/09/29 09:51:25;;;;;;;9.18;5.13;;;;;;;14.60;100.00;100394.59;7380143;19;20011;-69
2022/09/29 09:53:57;;;;;;;10.35;5.00;;;;;;;14.55;100.00;100400.84;7375243;19;20066;-69
2022/09/29 09:56:45;;;;;;;8.07;4.00;;;;;;;14.59;100.00;100402.53;7378376;19;20014;-68
2022/09/29 09:59:31;;;;;;;10.90;6.07;;;;;;;14.71;100.00;100392.72;7379304;19;20027;-69
2022/09/29 10:02:01;;;;;;;10.88;5.88;;;;;;;14.55;100.00;100401.72;7380339;19;20016;-68
2022/09/29 10:04:32;;;;;;;11.40;5.90;;;;;;;14.61;100.00;100406.03;7377373;19;20294;-69
2022/09/29 10:07:05;;;;;;;10.00;5.07;;;;;;;14.56;100.00;100398.16;7378963;19;21115;-69
2022/09/29 10:09:35;;;;;;;9.53;5.60;;;;;;;14.50;100.00;100394.72;7379769;19;20014;-69
2022/09/29 10:12:05;;;;;;;10.20;5.97;;;;;;;14.79;100.00;100400.56;7384749;19;20276;-69
2022/09/29 10:14:40;;;;;;;11.80;6.07;;;;;;;15.00;100.00;100394.16;7380569;19;20028;-69
2022/09/29 10:17:15;;;;;;;8.32;4.82;;;;;;;15.17;100.00;100396.59;7375481;19;20010;-69
2022/09/29 10:19:57;;;;;;;7.38;3.97;;;;;;;15.27;100.00;100398.22;7377210;19;20280;-68
2022/09/29 10:22:28;;;;;;;6.95;3.75;;;;;;;15.32;100.00;100397.28;7373127;19;20013;-68
2022/09/29 10:25:10;;;;;;;8.68;4.47;;;;;;;14.85;100.00;100400.50;7371028;19;20014;-69
2022/09/29 10:27:43;;;;;;;9.18;5.20;;;;;;;15.18;100.00;100399.22;7384242;19;20006;-68
2022/09/29 10:30:27;;;;;;;10.95;5.43;;;;;;;15.65;100.00;100403.88;7382229;19;20081;-68
2022/09/29 10:33:00;;;;;;;9.23;5.50;;;;;;;15.80;100.00;100405.41;7383302;19;20011;-68
2022/09/29 10:35:37;;;;;;;8.07;4.30;;;;;;;15.64;100.00;100404.75;7381717;19;20647;-69
2022/09/29 10:38:10;;;;;;;6.80;3.97;;;;;;;15.74;100.00;100404.63;7384361;19;20015;-70
2022/09/29 10:40:57;;;;;;;8.82;4.47;;;;;;;15.78;100.00;100407.22;7385323;19;20034;-69
2022/09/29 10:43:33;;;;;;;9.13;4.47;;;;;;;15.68;100.00;100406.47;7383440;19;20009;-69
2022/09/29 10:46:05;;;;;;;9.82;4.45;;;;;;;15.94;100.00;100413.13;7383532;19;20014;-69
2022/09/29 10:48:36;;;;;;;7.93;4.15;;;;;;;16.10;100.00;100408.47;7386251;19;20014;-68
2022/09/29 10:51:07;;;;;;;7.32;3.75;;;;;;;16.21;100.00;100409.19;7387103;19;20086;-69
2022/09/29 10:53:40;;;;;;;6.78;3.40;;;;;;;16.31;100.00;100416.94;7383845;19;20235;-69
2022/09/29 10:56:18;;;;;;;6.32;3.20;;;;;;;16.40;100.00;100418.56;7384435;19;20015;-69
2022/09/29 10:58:56;;;;;;;6.85;2.95;;;;;;;16.31;100.00;100418.72;7384483;19;19999;-68
2022/09/29 11:01:46;;;;;;;5.78;3.13;;;;;;;16.23;100.00;100413.56;7386771;19;20038;-68
2022/09/29 11:04:21;;;;;;;6.93;3.47;;;;;;;16.36;100.00;100419.50;7380788;19;20486;-68
2022/09/29 11:06:52;;;;;;;5.25;3.38;;;;;;;16.51;100.00;100419.25;7380743;19;20435;-69
2022/09/29 11:09:30;;;;;;;6.65;3.22;;;;;;;16.31;100.00;100424.00;7379712;19;20474;-68
2022/09/29 11:12:00;;;;;;;4.85;2.83;;;;;;;16.43;100.00;100428.22;7379561;19;20337;-68
2022/09/29 11:14:44;;;;;;;6.40;3.10;;;;;;;16.80;100.00;100424.00;7374925;19;20048;-68
2022/09/29 11:17:26;;;;;;;6.18;3.25;;;;;;;16.98;100.00;100428.09;7374908;19;20082;-68
2022/09/29 11:20:01;;;;;;;5.75;3.30;;;;;;;16.87;100.00;100430.94;7377235;19;20010;-68
2022/09/29 11:22:58;;;;;;;6.43;3.30;;;;;;;17.01;100.00;100433.34;7378729;19;20472;-67
2022/09/29 11:25:53;;;;;;;5.65;2.60;;;;;;;16.97;100.00;100436.94;7378157;19;20014;-68
2022/09/29 11:28:36;;;;;;;4.57;2.70;;;;;;;17.02;100.00;100447.44;7380634;19;20013;-68
2022/09/29 11:31:20;;;;;;;3.20;2.03;;;;;;;16.99;96.03;100441.31;7380568;19;20022;-68
2022/09/29 11:34:07;;;;;;;2.05;1.70;;;;;;;16.97;95.32;100443.13;7375440;19;20014;-67
2022/09/29 11:36:44;;;;;;;3.20;1.67;;;;;;;16.77;87.59;100439.97;7371743;19;20082;-67
2022/09/29 11:39:29;;;;;;;4.20;2.20;;;;;;;16.79;95.20;100443.47;7376164;19;20042;-67
2022/09/29 11:42:12;;;;;;;4.05;2.17;;;;;;;17.02;98.13;100445.69;7373002;19;20010;-67
2022/09/29 11:45:02;;;;;;;4.60;2.10;;;;;;;17.24;96.53;100444.34;7372880;19;20006;-69
2022/09/29 11:47:52;;;;;;;4.28;2.00;;;;;;;17.66;92.57;100443.50;7371164;19;20636;-67
2022/09/29 11:50:45;;;;;;;3.88;2.28;;;;;;;17.57;90.01;100450.72;7372770;19;20057;-67